Goodman, MO (64843)

5:50 PM CDT on May 05, 2015 (GMT -0500)
NonFedAWOS | | Change Station
CLOSE
Current Station
Personal Weather Station
Location: Neosho, MO
Elevation: 1254 ft
Nearby Weather Stations

Elev 1254 ft 36.81 °N, 94.39 °W | Updated 35 minutes ago

Mostly Cloudy
Mostly Cloudy
75 °F
Feels Like 77 °F
N
8
Wind Variable Wind from SSE
Gusts 0.0 mph

Today
High -- | Low -- °F
--% Chance of Precip.
Yesterday
High -- | Low -- °F
Precip. -- in
6:19 AM 8:09 PM
Waning Gibbous, 97% visible
Pressure 30.01 in
Visibility 10.0 miles
Clouds Scattered Clouds 12000 ft
Heat Index 77 °F
Dew Point 63 °F
Humidity 65%
Rainfall in
Snow Depth Not available.
UV 2 out of 12
Pollen 10.70 out of 12
Air Quality Not available.
Flu Activity Sporadic
METAR KGMJ 052235Z AUTO 14014KT 10SM SCT120 26/16 A3001 RMK AO2

More Conditions Fewer Conditions

Pressure 30.01 in
Visibility 10.0 miles
Clouds Scattered Clouds 12000 ft
Heat Index 77 °F
Dew Point 63 °F
Humidity 65%
Rainfall in
Snow Depth Not available.
UV 2 out of 12
Pollen 10.70 out of 12
Air Quality Not available.
Flu Activity Sporadic
METAR KGMJ 052235Z AUTO 14014KT 10SM SCT120 26/16 A3001 RMK AO2

More Conditions Fewer Conditions

10-Day Weather Forecast

Almanac

Astronomy

May. 05, 2015 Rise Set
Actual Time
Civil Twilight
Nautical Twilight
Astronomical Twilight
Moon
Length of Visible Light
Length of Day
Tomorrow will be .
, % of the Moon is Illuminated

Today's Extremes

State Highs State Lows

Community

WunderPhotos

Upload Photos

1,819,000 photos uploaded!

WunderBlogs® & News

Nearby

Air Quality

  Air Quality AQ Index Pollutant
Not available.

Snow Depth

Station Depth Elevation

Earthquake Activity

City Distance Mag. Time & Date
Minimum magnitude displayed is 2.5.

Coastal Water Temperatures

Place Temperature

Stations

Nearby Weather Stations

Station Location Temp. Windchill Dew Point Humidity Wind Precip. Elev Updated Type